Anza, California
Current Conditions -  °F | °C
As of 3:53 PM on Tuesday 21 Oct 2014 (Local Time) from KPSP Reporting Station
Scattered Clouds Scattered Clouds  
Wind Chill: 94°   Ceiling: Unl
Heat Index: 94°   Visibility: 10mi
Dew Point: 34°   Wind: 8mph
Humidity: 12%   Direction: 320°NW
Pressure: 29.75"   Gusts: NA
Location:  33.55°N, 116.67°W
Report Text: KPSP 212253Z 32007KT 280V020 10SM SCT200 34/01 A2975 RMK AO2 SLP070 T03440011 $
Loading
Personal Weather Stations






























Interactive Weather Map
Tropical Storm Tracking
New forecast layout! Learn more

10-Day Weather Forecast

Advertisements
Track Severe Weather on mobile